Time;durP1;ratioP1;P1;durP2;ratioP2;P2;SDS_P1;SDS_P2;PMS_P1;PMS_P2;Temp;Humidity;BMP_temperature;BMP_pressure;BME280_temperature;BME280_humidity;BME280_pressure;Samples;Min_cycle;Max_cycle;Signal;HPM_P1;HPM_P2
2021/03/15 00:02:12;;;;;;;;;;;15.50;56.40;;;;;;4936401;29;19927;-61
2021/03/15 00:04:37;;;;;;;;;;;15.50;56.40;;;;;;4936814;28;20333;-60
2021/03/15 00:07:03;;;;;;;;;;;15.50;56.40;;;;;;4936465;29;19914;-60
2021/03/15 00:09:28;;;;;;;;;;;15.50;56.50;;;;;;4936253;29;19962;-60
2021/03/15 00:11:54;;;;;;;;;;;15.50;56.50;;;;;;4936444;29;20005;-60
2021/03/15 00:14:20;;;;;;;;;;;15.50;56.50;;;;;;4936313;29;20243;-60
2021/03/15 00:16:46;;;;;;;;;;;15.40;56.50;;;;;;4919057;29;20366;-61
2021/03/15 00:19:12;;;;;;;;;;;15.50;56.60;;;;;;4935906;29;19922;-60
2021/03/15 00:21:37;;;;;;;;;;;15.50;56.70;;;;;;4936289;29;19919;-60
2021/03/15 00:24:03;;;;;;;;;;;15.40;56.60;;;;;;4935837;29;20250;-59
2021/03/15 00:26:29;;;;;;;;;;;15.40;56.60;;;;;;4936268;29;19997;-60
2021/03/15 00:28:54;;;;;;;;;;;15.40;56.70;;;;;;4935703;29;20061;-60
2021/03/15 00:31:20;;;;;;;;;;;15.30;56.60;;;;;;4936064;29;19907;-60
2021/03/15 00:33:45;;;;;;;;;;;15.40;56.70;;;;;;4935035;29;19933;-60
2021/03/15 00:36:10;;;;;;;;;;;15.30;56.70;;;;;;4918794;29;19935;-60
2021/03/15 00:38:36;;;;;;;;;;;15.20;56.70;;;;;;4936207;29;19911;-60
2021/03/15 00:41:02;;;;;;;;;;;15.40;56.80;;;;;;4935800;29;20013;-61
2021/03/15 00:43:27;;;;;;;;;;;15.60;57.00;;;;;;4935529;29;20423;-60
2021/03/15 00:45:53;;;;;;;;;;;15.40;56.90;;;;;;4936013;29;19913;-61
2021/03/15 00:48:18;;;;;;;;;;;15.30;56.80;;;;;;4918544;29;19949;-61
2021/03/15 00:50:44;;;;;;;;;;;15.30;56.90;;;;;;4935630;29;20357;-60
2021/03/15 00:53:10;;;;;;;;;;;15.20;56.90;;;;;;4935558;29;19911;-60
2021/03/15 00:55:42;;;;;;;;;;;15.30;57.00;;;;;;4935792;29;20339;-60
2021/03/15 00:58:08;;;;;;;;;;;15.10;56.90;;;;;;4935446;29;20376;-60
2021/03/15 01:00:35;;;;;;;;;;;15.10;56.90;;;;;;4935405;29;19969;-61
2021/03/15 01:03:01;;;;;;;;;;;15.30;57.10;;;;;;4935543;28;19993;-60
2021/03/15 01:05:28;;;;;;;;;;;15.20;57.00;;;;;;4935445;29;19997;-60
2021/03/15 01:07:53;;;;;;;;;;;15.20;57.00;;;;;;4935646;29;20273;-60
2021/03/15 01:10:20;;;;;;;;;;;15.30;57.10;;;;;;4935441;29;19911;-60
2021/03/15 01:12:46;;;;;;;;;;;15.00;56.90;;;;;;4935618;29;20370;-60
2021/03/15 01:15:12;;;;;;;;;;;15.20;57.10;;;;;;4935377;29;19954;-60
2021/03/15 01:17:37;;;;;;;;;;;15.20;57.10;;;;;;4935278;29;20273;-60
2021/03/15 01:20:05;;;;;;;;;;;15.20;57.10;;;;;;4935154;29;19969;-60
2021/03/15 01:22:30;;;;;;;;;;;15.20;57.10;;;;;;4935301;29;19933;-60
2021/03/15 01:24:55;;;;;;;;;;;15.20;57.20;;;;;;4935290;29;19914;-60
2021/03/15 01:27:21;;;;;;;;;;;15.20;57.20;;;;;;4935295;29;19914;-60
2021/03/15 01:29:48;;;;;;;;;;;15.20;57.30;;;;;;4935203;29;19938;-59
2021/03/15 01:32:13;;;;;;;;;;;15.10;57.10;;;;;;4935115;29;20005;-60
2021/03/15 01:34:39;;;;;;;;;;;15.20;57.30;;;;;;4935006;29;19957;-60
2021/03/15 01:37:04;;;;;;;;;;;15.10;57.30;;;;;;4935318;29;20258;-60
2021/03/15 01:39:31;;;;;;;;;;;15.10;57.30;;;;;;4935111;29;20006;-60
2021/03/15 01:41:57;;;;;;;;;;;14.90;57.20;;;;;;4935152;29;19919;-59
2021/03/15 01:44:22;;;;;;;;;;;15.10;57.70;;;;;;4935188;29;20466;-61
2021/03/15 01:46:48;;;;;;;;;;;15.10;57.40;;;;;;4938259;29;20409;-61
2021/03/15 01:49:13;;;;;;;;;;;15.10;57.30;;;;;;4938985;29;19926;-60
2021/03/15 01:51:39;;;;;;;;;;;15.10;57.40;;;;;;4938728;29;20429;-61
2021/03/15 01:54:04;;;;;;;;;;;15.10;57.40;;;;;;4938510;29;19907;-61
2021/03/15 01:56:30;;;;;;;;;;;15.10;57.40;;;;;;4938917;29;19950;-60
2021/03/15 01:58:56;;;;;;;;;;;15.10;57.40;;;;;;4938665;29;20358;-61
2021/03/15 02:01:21;;;;;;;;;;;14.80;57.30;;;;;;4938530;29;20002;-60
2021/03/15 02:03:47;;;;;;;;;;;15.00;56.90;;;;;;4938661;28;19926;-61
2021/03/15 02:06:13;;;;;;;;;;;15.00;57.40;;;;;;4938462;29;19910;-60
2021/03/15 02:08:38;;;;;;;;;;;15.00;57.40;;;;;;4938481;29;20020;-59
2021/03/15 02:11:08;;;;;;;;;;;15.10;57.50;;;;;;4938198;29;19907;-60
2021/03/15 02:13:40;;;;;;;;;;;15.00;57.40;;;;;;4938344;29;19956;-60
2021/03/15 02:16:09;;;;;;;;;;;15.00;57.40;;;;;;4938253;29;20413;-60
2021/03/15 02:18:41;;;;;;;;;;;15.00;57.50;;;;;;4921148;29;19907;-59
2021/03/15 02:21:32;;;;;;;;;;;15.00;57.40;;;;;;4938366;29;20336;-60
2021/03/15 02:24:10;;;;;;;;;;;15.00;57.40;;;;;;4934197;29;19910;-60
2021/03/15 02:26:56;;;;;;;;;;;15.00;57.50;;;;;;4938434;29;19906;-58
2021/03/15 02:29:40;;;;;;;;;;;15.00;57.60;;;;;;4937301;29;19907;-60
2021/03/15 02:32:06;;;;;;;;;;;15.00;57.50;;;;;;4938001;29;20282;-60
2021/03/15 02:34:31;;;;;;;;;;;14.70;57.50;;;;;;4937792;29;19906;-60
2021/03/15 02:36:58;;;;;;;;;;;15.00;57.60;;;;;;4937930;29;19907;-60
2021/03/15 02:39:26;;;;;;;;;;;14.90;57.60;;;;;;4938198;29;19911;-60
2021/03/15 02:41:55;;;;;;;;;;;14.80;57.50;;;;;;4937783;29;19915;-61
2021/03/15 02:44:21;;;;;;;;;;;14.90;57.60;;;;;;4937938;29;20075;-60
2021/03/15 02:46:47;;;;;;;;;;;14.80;57.70;;;;;;4937807;29;19970;-61
2021/03/15 02:49:16;;;;;;;;;;;14.90;57.70;;;;;;4937809;29;20014;-60
2021/03/15 02:51:42;;;;;;;;;;;14.90;57.60;;;;;;4937726;29;19954;-60
2021/03/15 02:54:10;;;;;;;;;;;14.80;57.60;;;;;;4937705;29;19915;-60
2021/03/15 02:56:42;;;;;;;;;;;14.90;57.70;;;;;;4903854;29;19949;-60
2021/03/15 02:59:08;;;;;;;;;;;14.60;57.60;;;;;;4937696;29;19907;-60
2021/03/15 03:01:36;;;;;;;;;;;15.10;57.80;;;;;;4937672;29;20025;-59
2021/03/15 03:04:02;;;;;;;;;;;14.90;57.20;;;;;;4937663;28;19919;-60
2021/03/15 03:06:29;;;;;;;;;;;14.80;57.70;;;;;;4937545;29;19910;-59
2021/03/15 03:08:56;;;;;;;;;;;14.80;57.80;;;;;;4937531;29;19906;-58
2021/03/15 03:11:23;;;;;;;;;;;14.80;57.80;;;;;;4937331;29;19907;-60
2021/03/15 03:13:50;;;;;;;;;;;14.90;57.80;;;;;;4937434;29;19914;-60
2021/03/15 03:16:16;;;;;;;;;;;14.80;57.80;;;;;;4937292;29;19942;-60
2021/03/15 03:18:43;;;;;;;;;;;14.80;57.80;;;;;;4937178;29;20379;-61
2021/03/15 03:21:09;;;;;;;;;;;14.50;57.70;;;;;;4937288;29;19919;-60
2021/03/15 03:23:36;;;;;;;;;;;14.80;57.90;;;;;;4920061;29;19994;-60
2021/03/15 03:26:02;;;;;;;;;;;14.80;57.90;;;;;;4937110;29;19907;-61
2021/03/15 03:28:28;;;;;;;;;;;14.80;57.90;;;;;;4936933;29;19907;-61
2021/03/15 03:30:55;;;;;;;;;;;14.60;57.80;;;;;;4936982;29;19918;-60
2021/03/15 03:33:20;;;;;;;;;;;14.60;57.80;;;;;;4937059;29;19907;-60
2021/03/15 03:35:46;;;;;;;;;;;14.50;57.80;;;;;;4936864;29;19913;-60
2021/03/15 03:38:12;;;;;;;;;;;14.70;58.20;;;;;;4937102;29;20345;-60
2021/03/15 03:40:38;;;;;;;;;;;14.60;57.80;;;;;;4936925;29;19925;-60
2021/03/15 03:43:03;;;;;;;;;;;14.60;57.90;;;;;;4936739;29;20302;-60
2021/03/15 03:45:29;;;;;;;;;;;14.70;58.00;;;;;;4936859;29;19938;-60
2021/03/15 03:47:55;;;;;;;;;;;14.70;58.00;;;;;;4936617;29;19906;-60
2021/03/15 03:50:21;;;;;;;;;;;15.00;58.10;;;;;;4936625;29;19907;-61
2021/03/15 03:53:01;;;;;;;;;;;14.50;57.80;;;;;;4936563;29;19906;-61
2021/03/15 03:55:30;;;;;;;;;;;14.70;57.90;;;;;;4936953;29;19906;-59
2021/03/15 03:57:56;;;;;;;;;;;14.70;57.90;;;;;;4936229;29;19907;-60
2021/03/15 04:00:22;;;;;;;;;;;14.70;58.00;;;;;;4936618;29;19974;-61
2021/03/15 04:02:52;;;;;;;;;;;14.70;58.00;;;;;;4936217;29;20712;-60
2021/03/15 04:05:20;;;;;;;;;;;14.70;57.90;;;;;;4903440;28;19958;-60
2021/03/15 04:07:49;;;;;;;;;;;14.70;58.00;;;;;;4917288;29;19907;-60
2021/03/15 04:10:14;;;;;;;;;;;14.60;58.00;;;;;;4917222;29;19907;-61
2021/03/15 04:12:43;;;;;;;;;;;14.70;58.10;;;;;;4917141;29;20013;-60
2021/03/15 04:15:09;;;;;;;;;;;14.50;58.00;;;;;;4917307;29;19993;-60
2021/03/15 04:17:36;;;;;;;;;;;14.60;58.00;;;;;;4917269;29;19946;-60
2021/03/15 04:20:06;;;;;;;;;;;14.70;58.10;;;;;;4917303;29;19907;-60
2021/03/15 04:22:33;;;;;;;;;;;14.60;58.00;;;;;;4916836;29;19907;-60
2021/03/15 04:24:59;;;;;;;;;;;14.60;58.00;;;;;;4916998;29;19907;-60
2021/03/15 04:27:26;;;;;;;;;;;14.60;58.10;;;;;;4917088;29;19914;-60
2021/03/15 04:29:52;;;;;;;;;;;14.50;58.10;;;;;;4899838;29;19926;-60
2021/03/15 04:32:18;;;;;;;;;;;14.60;58.20;;;;;;4916841;29;20319;-60
2021/03/15 04:34:44;;;;;;;;;;;14.40;58.10;;;;;;4916738;29;19990;-61
2021/03/15 04:37:11;;;;;;;;;;;14.60;58.20;;;;;;4916884;29;19964;-61
2021/03/15 04:39:37;;;;;;;;;;;14.60;58.20;;;;;;4916830;29;20280;-61
2021/03/15 04:42:02;;;;;;;;;;;14.60;58.20;;;;;;4917032;29;20001;-59
2021/03/15 04:44:28;;;;;;;;;;;14.60;58.20;;;;;;4916971;29;20314;-60
2021/03/15 04:46:55;;;;;;;;;;;15.20;58.50;;;;;;4916659;29;19910;-60
2021/03/15 04:49:21;;;;;;;;;;;14.60;58.20;;;;;;4916887;29;19914;-59
2021/03/15 04:51:47;;;;;;;;;;;14.50;58.20;;;;;;4916606;29;20422;-60
2021/03/15 04:54:12;;;;;;;;;;;14.50;58.20;;;;;;4899395;29;19910;-60
2021/03/15 04:56:38;;;;;;;;;;;14.50;58.20;;;;;;4916411;29;19967;-60
2021/03/15 04:59:12;;;;;;;;;;;14.40;58.10;;;;;;4916598;29;20018;-59
2021/03/15 05:01:40;;;;;;;;;;;14.50;58.20;;;;;;4916454;29;19943;-60
2021/03/15 05:04:18;;;;;;;;;;;14.50;58.20;;;;;;4917253;28;20366;-59
2021/03/15 05:06:44;;;;;;;;;;;14.50;58.10;;;;;;4935220;29;19914;-59
2021/03/15 05:09:11;;;;;;;;;;;14.50;58.20;;;;;;4918138;29;19911;-59
2021/03/15 05:11:37;;;;;;;;;;;14.50;58.30;;;;;;4918558;29;19907;-59
2021/03/15 05:14:04;;;;;;;;;;;14.50;58.30;;;;;;4935145;29;19911;-60
2021/03/15 05:16:30;;;;;;;;;;;14.50;58.20;;;;;;4935088;29;19918;-59
2021/03/15 05:18:56;;;;;;;;;;;14.40;58.20;;;;;;4935209;29;19910;-59
2021/03/15 05:21:22;;;;;;;;;;;15.30;58.70;;;;;;4934293;29;19919;-60
2021/03/15 05:23:48;;;;;;;;;;;14.30;58.20;;;;;;4935327;29;19907;-61
2021/03/15 05:26:13;;;;;;;;;;;14.40;58.20;;;;;;4935136;29;19993;-60
2021/03/15 05:28:40;;;;;;;;;;;14.40;58.30;;;;;;4935080;29;20061;-60
2021/03/15 05:31:06;;;;;;;;;;;14.40;58.30;;;;;;4935046;29;19934;-59
2021/03/15 05:33:35;;;;;;;;;;;14.40;58.30;;;;;;4935232;29;19907;-60
2021/03/15 05:36:01;;;;;;;;;;;14.40;58.20;;;;;;4935144;29;19914;-58
2021/03/15 05:38:26;;;;;;;;;;;14.50;58.30;;;;;;4935223;29;19906;-59
2021/03/15 05:40:52;;;;;;;;;;;14.40;58.30;;;;;;4934927;29;19915;-60
2021/03/15 05:43:21;;;;;;;;;;;14.40;58.30;;;;;;4935111;29;19910;-60
2021/03/15 05:46:05;;;;;;;;;;;14.80;58.50;;;;;;4935204;29;19907;-59
2021/03/15 05:48:33;;;;;;;;;;;14.50;58.30;;;;;;4935276;29;19937;-59
2021/03/15 05:51:08;;;;;;;;;;;14.50;58.40;;;;;;4935100;29;19966;-59
2021/03/15 05:53:52;;;;;;;;;;;14.50;58.40;;;;;;4935193;29;19910;-60
2021/03/15 05:56:32;;;;;;;;;;;14.50;58.40;;;;;;4935158;29;19907;-60
2021/03/15 05:58:58;;;;;;;;;;;14.50;58.50;;;;;;4935112;29;20541;-60
2021/03/15 06:01:35;;;;;;;;;;;14.40;58.50;;;;;;4934936;29;19919;-60
2021/03/15 06:04:28;;;;;;;;;;;14.40;58.50;;;;;;4934761;28;19911;-60
2021/03/15 06:06:55;;;;;;;;;;;14.50;59.60;;;;;;4934876;29;19910;-58
2021/03/15 06:09:25;;;;;;;;;;;14.50;59.10;;;;;;4934570;29;20005;-60
2021/03/15 06:11:54;;;;;;;;;;;14.40;59.20;;;;;;4934789;29;20372;-59
2021/03/15 06:14:22;;;;;;;;;;;14.60;59.30;;;;;;4934936;29;19910;-57
2021/03/15 06:16:47;;;;;;;;;;;14.50;59.30;;;;;;4934777;29;20377;-58
2021/03/15 06:19:13;;;;;;;;;;;14.70;59.40;;;;;;4934953;29;19911;-58
2021/03/15 06:21:41;;;;;;;;;;;14.80;59.30;;;;;;4934957;29;19925;-58
2021/03/15 06:24:06;;;;;;;;;;;14.80;59.20;;;;;;4934808;29;19907;-57
2021/03/15 06:26:32;;;;;;;;;;;14.90;59.20;;;;;;4934867;29;19954;-57
2021/03/15 06:28:58;;;;;;;;;;;14.80;59.10;;;;;;4934740;29;19969;-58
2021/03/15 06:31:24;;;;;;;;;;;15.00;59.10;;;;;;4934544;29;19907;-58
2021/03/15 06:33:50;;;;;;;;;;;15.00;59.10;;;;;;4937874;29;19910;-58
2021/03/15 06:36:16;;;;;;;;;;;15.00;58.90;;;;;;4938369;29;20388;-58
2021/03/15 06:38:42;;;;;;;;;;;15.10;58.90;;;;;;4937808;29;20016;-58
2021/03/15 06:41:08;;;;;;;;;;;15.20;58.90;;;;;;4938185;29;19921;-58
2021/03/15 06:43:34;;;;;;;;;;;15.20;58.80;;;;;;4938201;29;20001;-58
2021/03/15 06:45:59;;;;;;;;;;;15.30;58.70;;;;;;4920591;29;20462;-59
2021/03/15 06:48:25;;;;;;;;;;;15.50;58.70;;;;;;4937854;29;19954;-59
2021/03/15 06:50:51;;;;;;;;;;;15.40;58.60;;;;;;4937578;29;20273;-59
2021/03/15 06:53:17;;;;;;;;;;;15.40;58.40;;;;;;4937734;29;19906;-59
2021/03/15 06:55:44;;;;;;;;;;;15.40;58.80;;;;;;4937619;29;19934;-57
2021/03/15 06:58:19;;;;;;;;;;;15.40;58.70;;;;;;4937118;29;19918;-57
2021/03/15 07:00:48;;;;;;;;;;;15.60;58.70;;;;;;4936773;29;19911;-55
2021/03/15 07:03:20;;;;;;;;;;;15.60;58.50;;;;;;4936736;29;19922;-58
2021/03/15 07:05:54;;;;;;;;;;;15.70;58.40;;;;;;4938288;28;19994;-57
2021/03/15 07:08:20;;;;;;;;;;;15.70;58.30;;;;;;4937600;29;19933;-57
2021/03/15 07:10:45;;;;;;;;;;;15.60;58.00;;;;;;4937467;29;19985;-57
2021/03/15 07:13:16;;;;;;;;;;;15.80;58.00;;;;;;4937667;29;19913;-56
2021/03/15 07:15:42;;;;;;;;;;;15.80;57.90;;;;;;4937381;29;19990;-57
2021/03/15 07:18:17;;;;;;;;;;;15.80;58.00;;;;;;4937369;29;19914;-57
2021/03/15 07:20:44;;;;;;;;;;;15.80;58.40;;;;;;4937178;29;19970;-56
2021/03/15 07:23:10;;;;;;;;;;;15.90;57.80;;;;;;4937398;29;19911;-56
2021/03/15 07:25:36;;;;;;;;;;;15.70;57.60;;;;;;4937337;29;19977;-55
2021/03/15 07:28:01;;;;;;;;;;;15.90;57.70;;;;;;4937376;29;19907;-57
2021/03/15 07:30:32;;;;;;;;;;;15.80;57.60;;;;;;4919895;29;19906;-54
2021/03/15 07:32:58;;;;;;;;;;;15.90;57.50;;;;;;4937105;29;20276;-52
2021/03/15 07:35:25;;;;;;;;;;;15.90;57.50;;;;;;4936608;29;19911;-55
2021/03/15 07:37:54;;;;;;;;;;;15.80;57.50;;;;;;4935443;29;19955;-57
2021/03/15 07:40:38;;;;;;;;;;;15.90;57.40;;;;;;4936121;29;20009;-57
2021/03/15 07:43:05;;;;;;;;;;;15.90;57.30;;;;;;4935529;29;19918;-55
2021/03/15 07:45:31;;;;;;;;;;;15.80;57.20;;;;;;4935138;29;20535;-58
2021/03/15 07:48:09;;;;;;;;;;;15.80;57.20;;;;;;4935487;29;20258;-57
2021/03/15 07:50:34;;;;;;;;;;;15.80;57.30;;;;;;4936394;29;19911;-57
2021/03/15 07:53:01;;;;;;;;;;;15.70;57.20;;;;;;4936872;29;20381;-57
2021/03/15 07:55:39;;;;;;;;;;;15.90;57.20;;;;;;4936831;29;19907;-57
2021/03/15 07:58:28;;;;;;;;;;;15.80;57.10;;;;;;4936729;29;19907;-57
2021/03/15 08:00:54;;;;;;;;;;;15.90;57.20;;;;;;4917531;29;20305;-58
2021/03/15 08:03:21;;;;;;;;;;;15.70;57.20;;;;;;4917590;29;20009;-58
2021/03/15 08:05:47;;;;;;;;;;;15.90;57.30;;;;;;4917930;28;19919;-58
2021/03/15 08:08:12;;;;;;;;;;;15.90;57.20;;;;;;4917553;29;19907;-57
2021/03/15 08:10:40;;;;;;;;;;;15.70;56.90;;;;;;4917260;29;19911;-57
2021/03/15 08:13:05;;;;;;;;;;;16.00;56.90;;;;;;4917439;29;19911;-57
2021/03/15 08:15:32;;;;;;;;;;;16.00;56.80;;;;;;4917529;29;19907;-57
2021/03/15 08:17:58;;;;;;;;;;;16.10;56.60;;;;;;4917235;29;20333;-58
2021/03/15 08:20:24;;;;;;;;;;;16.40;56.50;;;;;;4917069;29;19915;-58
2021/03/15 08:22:51;;;;;;;;;;;16.20;56.40;;;;;;4917139;29;19954;-57
2021/03/15 08:25:17;;;;;;;;;;;16.20;56.30;;;;;;4917170;29;20278;-57
2021/03/15 08:27:43;;;;;;;;;;;16.00;56.30;;;;;;4917327;29;20001;-56
2021/03/15 08:30:15;;;;;;;;;;;16.10;56.30;;;;;;4917367;29;20433;-57
2021/03/15 08:32:41;;;;;;;;;;;16.10;56.30;;;;;;4917083;29;19911;-57
2021/03/15 08:35:08;;;;;;;;;;;16.00;56.20;;;;;;4916940;29;19934;-58
2021/03/15 08:37:52;;;;;;;;;;;16.00;56.40;;;;;;4917273;29;19914;-58
2021/03/15 08:40:36;;;;;;;;;;;16.00;56.40;;;;;;4917127;29;20315;-56
2021/03/15 08:43:21;;;;;;;;;;;15.90;56.50;;;;;;4916938;29;20289;-57
2021/03/15 08:45:58;;;;;;;;;;;15.70;57.10;;;;;;4916488;29;19907;-58
2021/03/15 08:48:32;;;;;;;;;;;15.90;56.50;;;;;;4916885;29;19914;-56
2021/03/15 08:50:59;;;;;;;;;;;15.80;56.50;;;;;;4899770;29;20276;-58
2021/03/15 08:53:36;;;;;;;;;;;15.80;56.60;;;;;;4916807;29;19907;-57
2021/03/15 08:56:03;;;;;;;;;;;15.80;56.60;;;;;;4916088;29;19914;-57
2021/03/15 08:58:34;;;;;;;;;;;15.70;56.80;;;;;;4916515;29;19907;-58
2021/03/15 09:01:00;;;;;;;;;;;15.70;56.70;;;;;;4916374;29;20366;-57
2021/03/15 09:03:45;;;;;;;;;;;15.50;56.70;;;;;;4910336;29;20387;-57
2021/03/15 09:06:11;;;;;;;;;;;15.70;56.70;;;;;;4896909;29;19959;-56
2021/03/15 09:09:04;;;;;;;;;;;15.40;56.60;;;;;;4897470;29;19943;-57
2021/03/15 09:11:39;;;;;;;;;;;15.60;56.70;;;;;;4894104;29;19970;-57
2021/03/15 09:14:14;;;;;;;;;;;15.60;56.70;;;;;;4897430;29;19911;-56
2021/03/15 09:16:41;;;;;;;;;;;15.60;56.70;;;;;;4897322;29;19967;-57
2021/03/15 09:19:16;;;;;;;;;;;16.00;56.80;;;;;;4897101;29;19908;-57
2021/03/15 09:21:46;;;;;;;;;;;15.60;56.60;;;;;;4896378;29;19916;-56
2021/03/15 09:24:30;;;;;;;;;;;15.70;56.60;;;;;;4895718;29;20017;-57
2021/03/15 09:26:55;;;;;;;;;;;15.70;56.20;;;;;;4897113;29;19911;-56
2021/03/15 09:29:21;;;;;;;;;;;15.90;56.50;;;;;;4897255;29;19907;-57
2021/03/15 09:32:02;;;;;;;;;;;16.00;56.40;;;;;;4897018;29;19919;-58
2021/03/15 09:34:27;;;;;;;;;;;16.00;55.90;;;;;;4897090;29;19999;-57
2021/03/15 09:36:56;;;;;;;;;;;16.00;56.00;;;;;;4897104;29;20022;-57
2021/03/15 09:39:24;;;;;;;;;;;16.10;55.90;;;;;;4880226;29;19907;-57
2021/03/15 09:41:49;;;;;;;;;;;16.00;55.80;;;;;;4897080;29;19919;-56
2021/03/15 09:44:20;;;;;;;;;;;16.10;56.00;;;;;;4896947;29;19913;-56
2021/03/15 09:46:48;;;;;;;;;;;15.90;56.00;;;;;;4897155;29;20426;-57
2021/03/15 09:49:30;;;;;;;;;;;16.40;56.20;;;;;;4896883;29;20363;-56
2021/03/15 09:52:07;;;;;;;;;;;16.60;56.40;;;;;;4897036;29;19915;-57
2021/03/15 09:54:42;;;;;;;;;;;16.10;56.20;;;;;;4896912;29;19914;-57
2021/03/15 09:57:08;;;;;;;;;;;16.20;56.20;;;;;;4896810;29;19907;-54
2021/03/15 09:59:33;;;;;;;;;;;16.80;56.60;;;;;;4915470;29;19914;-57
2021/03/15 10:01:59;;;;;;;;;;;16.00;56.20;;;;;;4915587;29;20013;-56
2021/03/15 10:04:42;;;;;;;;;;;16.10;56.30;;;;;;4916290;28;19926;-57
2021/03/15 10:07:15;;;;;;;;;;;16.10;56.40;;;;;;4917966;29;20417;-57
2021/03/15 10:09:40;;;;;;;;;;;16.10;56.50;;;;;;4918902;29;19986;-56
2021/03/15 10:12:17;;;;;;;;;;;16.80;57.10;;;;;;4919205;29;20428;-57
2021/03/15 10:14:42;;;;;;;;;;;16.00;56.80;;;;;;4919533;29;19907;-57
2021/03/15 10:17:08;;;;;;;;;;;16.00;57.00;;;;;;4919211;29;20458;-57
2021/03/15 10:19:34;;;;;;;;;;;16.00;56.80;;;;;;4919160;29;19915;-57
2021/03/15 10:22:12;;;;;;;;;;;15.80;56.80;;;;;;4919151;29;20538;-57
2021/03/15 10:24:39;;;;;;;;;;;16.00;57.20;;;;;;4919371;29;19995;-57
2021/03/15 10:27:09;;;;;;;;;;;15.90;57.60;;;;;;4902079;29;20393;-57
2021/03/15 10:29:35;;;;;;;;;;;16.00;58.60;;;;;;4918941;29;19911;-56
2021/03/15 10:32:01;;;;;;;;;;;15.90;58.80;;;;;;4919328;29;20342;-57
2021/03/15 10:34:27;;;;;;;;;;;16.00;60.50;;;;;;4919018;29;19911;-57
2021/03/15 10:36:53;;;;;;;;;;;15.80;60.90;;;;;;4919125;29;19907;-57
2021/03/15 10:39:22;;;;;;;;;;;16.00;64.20;;;;;;4919183;29;19911;-57
2021/03/15 10:41:49;;;;;;;;;;;16.10;65.30;;;;;;4918979;29;19915;-58
2021/03/15 10:44:17;;;;;;;;;;;16.10;65.50;;;;;;4919061;29;19911;-57
2021/03/15 10:46:46;;;;;;;;;;;16.20;66.00;;;;;;4918757;29;20382;-57
2021/03/15 10:49:19;;;;;;;;;;;16.20;65.80;;;;;;4918991;29;20259;-57
2021/03/15 10:51:50;;;;;;;;;;;16.20;66.10;;;;;;4918773;29;19950;-57
2021/03/15 10:54:35;;;;;;;;;;;16.00;66.30;;;;;;4925045;29;20377;-57
2021/03/15 10:57:14;;;;;;;;;;;16.10;66.50;;;;;;4918850;29;20255;-57
2021/03/15 10:59:40;;;;;;;;;;;16.10;66.80;;;;;;4918720;29;19924;-57
2021/03/15 11:02:06;;;;;;;;;;;16.00;66.90;;;;;;4918391;29;19915;-57
2021/03/15 11:04:32;;;;;;;;;;;15.90;66.90;;;;;;4919229;28;20040;-57
2021/03/15 11:06:58;;;;;;;;;;;15.90;67.20;;;;;;4918808;29;19954;-56
2021/03/15 11:09:23;;;;;;;;;;;16.00;67.20;;;;;;4918070;29;19978;-57
2021/03/15 11:11:52;;;;;;;;;;;16.00;67.30;;;;;;4918548;29;19911;-57
2021/03/15 11:14:18;;;;;;;;;;;15.80;67.40;;;;;;4918689;29;20329;-57
2021/03/15 11:16:43;;;;;;;;;;;16.00;67.60;;;;;;4918568;29;19961;-57
2021/03/15 11:19:13;;;;;;;;;;;16.00;67.70;;;;;;4918141;29;19929;-57
2021/03/15 11:21:39;;;;;;;;;;;16.00;67.90;;;;;;4918116;29;20058;-57
2021/03/15 11:24:06;;;;;;;;;;;16.10;68.00;;;;;;4917252;29;19950;-57
2021/03/15 11:26:48;;;;;;;;;;;16.10;68.00;;;;;;4918318;29;19953;-56
2021/03/15 11:29:14;;;;;;;;;;;16.10;67.90;;;;;;4917968;29;19954;-56
2021/03/15 11:31:49;;;;;;;;;;;16.10;68.10;;;;;;4918218;29;19958;-57
2021/03/15 11:34:20;;;;;;;;;;;16.10;68.00;;;;;;4901198;29;20029;-57
2021/03/15 11:36:53;;;;;;;;;;;16.10;67.90;;;;;;4918110;29;19907;-57
2021/03/15 11:39:19;;;;;;;;;;;16.10;68.00;;;;;;4918183;29;19911;-57
2021/03/15 11:41:45;;;;;;;;;;;15.90;67.80;;;;;;4917892;29;20393;-57
2021/03/15 11:44:11;;;;;;;;;;;16.10;67.80;;;;;;4917910;29;19955;-56
2021/03/15 11:46:36;;;;;;;;;;;16.10;67.80;;;;;;4918014;29;19942;-57
2021/03/15 11:49:02;;;;;;;;;;;16.10;67.60;;;;;;4917712;29;19907;-58
2021/03/15 11:51:27;;;;;;;;;;;15.90;67.50;;;;;;4917643;29;19907;-57
2021/03/15 11:53:53;;;;;;;;;;;16.10;67.60;;;;;;4917659;29;20002;-56
2021/03/15 11:56:20;;;;;;;;;;;16.10;67.50;;;;;;4917688;29;19907;-56
2021/03/15 11:58:46;;;;;;;;;;;16.20;67.50;;;;;;4900469;29;19947;-56
2021/03/15 12:01:11;;;;;;;;;;;16.10;67.00;;;;;;4917121;29;19953;-56
2021/03/15 12:03:37;;;;;;;;;;;16.10;66.80;;;;;;4917376;29;19907;-56
2021/03/15 12:06:03;;;;;;;;;;;16.10;66.60;;;;;;4917980;28;20005;-57
2021/03/15 12:08:28;;;;;;;;;;;16.10;66.60;;;;;;4917082;29;19914;-56
2021/03/15 12:10:54;;;;;;;;;;;16.10;66.50;;;;;;4917353;29;19911;-56
2021/03/15 12:13:20;;;;;;;;;;;16.10;66.50;;;;;;4917228;29;19933;-57
2021/03/15 12:15:45;;;;;;;;;;;16.10;66.40;;;;;;4917300;29;20384;-56
2021/03/15 12:18:11;;;;;;;;;;;15.90;66.20;;;;;;4917270;29;19907;-56
2021/03/15 12:20:37;;;;;;;;;;;16.20;66.40;;;;;;4893702;29;19911;-58
2021/03/15 12:23:03;;;;;;;;;;;16.10;66.30;;;;;;4898223;29;20002;-57
2021/03/15 12:25:29;;;;;;;;;;;16.30;67.00;;;;;;4881387;29;20401;-56
2021/03/15 12:27:55;;;;;;;;;;;16.10;66.10;;;;;;4898095;29;19970;-56
2021/03/15 12:30:22;;;;;;;;;;;16.10;66.20;;;;;;4897533;29;19947;-56
2021/03/15 12:32:48;;;;;;;;;;;16.40;66.20;;;;;;4898059;29;19908;-57
2021/03/15 12:35:13;;;;;;;;;;;16.00;65.90;;;;;;4898415;29;19907;-56
2021/03/15 12:37:39;;;;;;;;;;;16.10;65.90;;;;;;4898100;29;19919;-58
2021/03/15 12:40:05;;;;;;;;;;;15.90;65.70;;;;;;4898218;29;20366;-56
2021/03/15 12:42:30;;;;;;;;;;;16.10;65.80;;;;;;4897687;29;19994;-54
2021/03/15 12:44:56;;;;;;;;;;;16.00;65.60;;;;;;4897653;29;20138;-56
2021/03/15 12:47:22;;;;;;;;;;;16.10;65.80;;;;;;4897932;29;19914;-56
2021/03/15 12:49:49;;;;;;;;;;;16.10;65.60;;;;;;4897740;29;19908;-59
2021/03/15 12:52:15;;;;;;;;;;;16.10;65.70;;;;;;4897761;29;20014;-57
2021/03/15 12:54:40;;;;;;;;;;;16.00;65.50;;;;;;4897724;29;19970;-57
2021/03/15 12:57:06;;;;;;;;;;;16.10;65.50;;;;;;4880935;29;19914;-57
2021/03/15 12:59:31;;;;;;;;;;;16.20;65.30;;;;;;4897560;29;19914;-57
2021/03/15 13:01:57;;;;;;;;;;;16.10;65.10;;;;;;4897444;29;19971;-57
2021/03/15 13:04:22;;;;;;;;;;;16.10;64.90;;;;;;4898304;29;19908;-55
2021/03/15 13:06:48;;;;;;;;;;;16.30;64.80;;;;;;4897764;29;19915;-58
2021/03/15 13:09:14;;;;;;;;;;;16.30;64.90;;;;;;4897536;29;20009;-56
2021/03/15 13:11:39;;;;;;;;;;;16.40;64.80;;;;;;4897626;29;19915;-57
2021/03/15 13:14:05;;;;;;;;;;;16.50;64.80;;;;;;4897346;29;19908;-55
2021/03/15 13:16:31;;;;;;;;;;;16.50;64.60;;;;;;4897531;29;20397;-56
2021/03/15 13:18:56;;;;;;;;;;;16.60;64.70;;;;;;4897430;29;19907;-57
2021/03/15 13:21:22;;;;;;;;;;;16.70;64.80;;;;;;4897113;29;20282;-57
2021/03/15 13:23:47;;;;;;;;;;;16.70;64.50;;;;;;4880399;29;20259;-56
2021/03/15 13:26:13;;;;;;;;;;;16.90;64.50;;;;;;4897375;29;19916;-57
2021/03/15 13:28:38;;;;;;;;;;;17.00;64.50;;;;;;4897587;29;20478;-57
2021/03/15 13:31:04;;;;;;;;;;;17.00;64.20;;;;;;4897254;29;19912;-57
2021/03/15 13:33:29;;;;;;;;;;;17.10;64.00;;;;;;4897048;29;20434;-58
2021/03/15 13:35:55;;;;;;;;;;;16.90;63.70;;;;;;4897167;29;19915;-56
2021/03/15 13:38:20;;;;;;;;;;;17.00;63.60;;;;;;4897377;29;20354;-57
2021/03/15 13:40:46;;;;;;;;;;;16.80;63.30;;;;;;4897834;29;19911;-57
2021/03/15 13:43:12;;;;;;;;;;;16.80;63.20;;;;;;4900649;29;19973;-56
2021/03/15 13:45:38;;;;;;;;;;;17.10;63.10;;;;;;4900680;29;19943;-57
2021/03/15 13:48:07;;;;;;;;;;;17.10;62.90;;;;;;4901373;29;20334;-56
2021/03/15 13:50:33;;;;;;;;;;;17.10;62.70;;;;;;4908379;29;19907;-57
2021/03/15 13:52:58;;;;;;;;;;;17.10;62.50;;;;;;4902981;29;20370;-58
2021/03/15 13:55:24;;;;;;;;;;;17.10;62.40;;;;;;4902857;29;19907;-56
2021/03/15 13:57:49;;;;;;;;;;;16.90;62.20;;;;;;4919845;29;20258;-56
2021/03/15 14:00:15;;;;;;;;;;;17.10;62.10;;;;;;4919430;29;20010;-56
2021/03/15 14:02:41;;;;;;;;;;;17.10;61.80;;;;;;4919719;29;19907;-54
2021/03/15 14:05:06;;;;;;;;;;;16.90;61.40;;;;;;4919986;28;20267;-56
2021/03/15 14:07:32;;;;;;;;;;;17.10;61.40;;;;;;4919788;29;20387;-58
2021/03/15 14:09:57;;;;;;;;;;;17.00;61.00;;;;;;4919536;29;19999;-57
2021/03/15 14:12:23;;;;;;;;;;;17.10;61.00;;;;;;4919329;29;19949;-55
2021/03/15 14:14:49;;;;;;;;;;;17.40;61.10;;;;;;4919362;29;19914;-57
2021/03/15 14:17:14;;;;;;;;;;;17.10;60.80;;;;;;4919293;29;20271;-57
2021/03/15 14:19:40;;;;;;;;;;;16.90;60.90;;;;;;4919434;29;20377;-57
2021/03/15 14:22:05;;;;;;;;;;;17.10;60.60;;;;;;4919322;29;20310;-57